sensor_id;sensor_type;location;lat;lon;timestamp;pressure;altitude;pressure_sealevel;temperature
14851;BMP180;7517;48.400;11.770;2023-09-08T00:01:31;96781.00;;;20.70
14851;BMP180;7517;48.400;11.770;2023-09-08T00:03:58;96785.00;;;20.60
14851;BMP180;7517;48.400;11.770;2023-09-08T00:06:26;96774.00;;;20.60
14851;BMP180;7517;48.400;11.770;2023-09-08T00:08:53;96775.00;;;20.60
14851;BMP180;7517;48.400;11.770;2023-09-08T00:11:20;96772.00;;;20.60
14851;BMP180;7517;48.400;11.770;2023-09-08T00:13:48;96775.00;;;20.50
14851;BMP180;7517;48.400;11.770;2023-09-08T00:16:17;96770.00;;;20.50
14851;BMP180;7517;48.400;11.770;2023-09-08T00:18:44;96774.00;;;20.50
14851;BMP180;7517;48.400;11.770;2023-09-08T00:21:12;96771.00;;;20.50
14851;BMP180;7517;48.400;11.770;2023-09-08T00:23:39;96767.00;;;20.40
14851;BMP180;7517;48.400;11.770;2023-09-08T00:26:06;96765.00;;;20.40
14851;BMP180;7517;48.400;11.770;2023-09-08T00:28:33;96758.00;;;20.40
14851;BMP180;7517;48.400;11.770;2023-09-08T00:31:01;96772.00;;;20.40
14851;BMP180;7517;48.400;11.770;2023-09-08T00:33:32;96765.00;;;20.30
14851;BMP180;7517;48.400;11.770;2023-09-08T00:36:00;96766.00;;;20.30
14851;BMP180;7517;48.400;11.770;2023-09-08T00:38:30;96767.00;;;20.30
14851;BMP180;7517;48.400;11.770;2023-09-08T00:40:57;96770.00;;;20.30
14851;BMP180;7517;48.400;11.770;2023-09-08T00:43:26;96767.00;;;20.20
14851;BMP180;7517;48.400;11.770;2023-09-08T00:45:55;96763.00;;;20.20
14851;BMP180;7517;48.400;11.770;2023-09-08T00:48:25;96762.00;;;20.20
14851;BMP180;7517;48.400;11.770;2023-09-08T00:50:54;96760.00;;;20.20
14851;BMP180;7517;48.400;11.770;2023-09-08T00:53:22;96760.00;;;20.20
14851;BMP180;7517;48.400;11.770;2023-09-08T00:55:50;96759.00;;;20.10
14851;BMP180;7517;48.400;11.770;2023-09-08T00:58:19;96758.00;;;20.10
14851;BMP180;7517;48.400;11.770;2023-09-08T01:00:46;96757.00;;;20.10
14851;BMP180;7517;48.400;11.770;2023-09-08T01:03:14;96766.00;;;20.10
14851;BMP180;7517;48.400;11.770;2023-09-08T01:05:41;96761.00;;;20.10
14851;BMP180;7517;48.400;11.770;2023-09-08T01:08:10;96758.00;;;20.10
14851;BMP180;7517;48.400;11.770;2023-09-08T01:10:37;96763.00;;;20.00
14851;BMP180;7517;48.400;11.770;2023-09-08T01:13:05;96763.00;;;20.00
14851;BMP180;7517;48.400;11.770;2023-09-08T01:15:32;96764.00;;;20.00
14851;BMP180;7517;48.400;11.770;2023-09-08T01:17:59;96765.00;;;20.00
14851;BMP180;7517;48.400;11.770;2023-09-08T01:20:35;96766.00;;;20.00
14851;BMP180;7517;48.400;11.770;2023-09-08T01:23:21;96769.00;;;19.90
14851;BMP180;7517;48.400;11.770;2023-09-08T01:25:55;96774.00;;;19.90
14851;BMP180;7517;48.400;11.770;2023-09-08T01:28:25;96764.00;;;19.90
14851;BMP180;7517;48.400;11.770;2023-09-08T01:30:54;96769.00;;;19.90
14851;BMP180;7517;48.400;11.770;2023-09-08T01:33:23;96763.00;;;19.90
14851;BMP180;7517;48.400;11.770;2023-09-08T01:35:51;96755.00;;;19.90
14851;BMP180;7517;48.400;11.770;2023-09-08T01:38:20;96761.00;;;19.90
14851;BMP180;7517;48.400;11.770;2023-09-08T01:40:47;96758.00;;;19.90
14851;BMP180;7517;48.400;11.770;2023-09-08T01:43:16;96761.00;;;19.80
14851;BMP180;7517;48.400;11.770;2023-09-08T01:45:43;96758.00;;;19.80
14851;BMP180;7517;48.400;11.770;2023-09-08T01:48:10;96759.00;;;19.80
14851;BMP180;7517;48.400;11.770;2023-09-08T01:50:37;96757.00;;;19.80
14851;BMP180;7517;48.400;11.770;2023-09-08T01:53:05;96761.00;;;19.80
14851;BMP180;7517;48.400;11.770;2023-09-08T01:55:32;96757.00;;;19.80
14851;BMP180;7517;48.400;11.770;2023-09-08T01:57:59;96754.00;;;19.70
14851;BMP180;7517;48.400;11.770;2023-09-08T02:00:28;96754.00;;;19.70
14851;BMP180;7517;48.400;11.770;2023-09-08T02:02:55;96753.00;;;19.70
14851;BMP180;7517;48.400;11.770;2023-09-08T02:05:22;96754.00;;;19.70
14851;BMP180;7517;48.400;11.770;2023-09-08T02:07:51;96747.00;;;19.70
14851;BMP180;7517;48.400;11.770;2023-09-08T02:10:18;96750.00;;;19.70
14851;BMP180;7517;48.400;11.770;2023-09-08T02:12:46;96747.00;;;19.60
14851;BMP180;7517;48.400;11.770;2023-09-08T02:15:13;96746.00;;;19.60
14851;BMP180;7517;48.400;11.770;2023-09-08T02:17:43;96741.00;;;19.50
14851;BMP180;7517;48.400;11.770;2023-09-08T02:20:11;96745.00;;;19.50
14851;BMP180;7517;48.400;11.770;2023-09-08T02:22:38;96746.00;;;19.50
14851;BMP180;7517;48.400;11.770;2023-09-08T02:25:06;96744.00;;;19.40
14851;BMP180;7517;48.400;11.770;2023-09-08T02:27:34;96743.00;;;19.40
14851;BMP180;7517;48.400;11.770;2023-09-08T02:30:02;96741.00;;;19.30
14851;BMP180;7517;48.400;11.770;2023-09-08T02:32:29;96747.00;;;19.30
14851;BMP180;7517;48.400;11.770;2023-09-08T02:34:58;96750.00;;;19.20
14851;BMP180;7517;48.400;11.770;2023-09-08T02:37:25;96752.00;;;19.20
14851;BMP180;7517;48.400;11.770;2023-09-08T02:39:52;96744.00;;;19.20
14851;BMP180;7517;48.400;11.770;2023-09-08T02:42:20;96743.00;;;19.10
14851;BMP180;7517;48.400;11.770;2023-09-08T02:44:47;96740.00;;;19.10
14851;BMP180;7517;48.400;11.770;2023-09-08T02:47:14;96731.00;;;19.10
14851;BMP180;7517;48.400;11.770;2023-09-08T02:49:41;96734.00;;;19.00
14851;BMP180;7517;48.400;11.770;2023-09-08T02:52:10;96733.00;;;19.00
14851;BMP180;7517;48.400;11.770;2023-09-08T02:54:37;96728.00;;;18.90
14851;BMP180;7517;48.400;11.770;2023-09-08T02:57:05;96725.00;;;18.90
14851;BMP180;7517;48.400;11.770;2023-09-08T02:59:32;96726.00;;;18.90
14851;BMP180;7517;48.400;11.770;2023-09-08T03:02:00;96725.00;;;18.90
14851;BMP180;7517;48.400;11.770;2023-09-08T03:04:27;96722.00;;;18.90
14851;BMP180;7517;48.400;11.770;2023-09-08T03:06:55;96727.00;;;18.90
14851;BMP180;7517;48.400;11.770;2023-09-08T03:09:23;96723.00;;;18.80
14851;BMP180;7517;48.400;11.770;2023-09-08T03:11:53;96724.00;;;18.80
14851;BMP180;7517;48.400;11.770;2023-09-08T03:14:20;96730.00;;;18.80
14851;BMP180;7517;48.400;11.770;2023-09-08T03:16:47;96735.00;;;18.70
14851;BMP180;7517;48.400;11.770;2023-09-08T03:19:14;96739.00;;;18.70
14851;BMP180;7517;48.400;11.770;2023-09-08T03:21:41;96734.00;;;18.70
14851;BMP180;7517;48.400;11.770;2023-09-08T03:24:08;96734.00;;;18.60
14851;BMP180;7517;48.400;11.770;2023-09-08T03:26:37;96730.00;;;18.60
14851;BMP180;7517;48.400;11.770;2023-09-08T03:29:06;96733.00;;;18.60
14851;BMP180;7517;48.400;11.770;2023-09-08T03:31:33;96735.00;;;18.50
14851;BMP180;7517;48.400;11.770;2023-09-08T03:34:00;96732.00;;;18.50
14851;BMP180;7517;48.400;11.770;2023-09-08T03:36:27;96734.00;;;18.50
14851;BMP180;7517;48.400;11.770;2023-09-08T03:38:56;96753.00;;;18.40
14851;BMP180;7517;48.400;11.770;2023-09-08T03:41:24;96741.00;;;18.40
14851;BMP180;7517;48.400;11.770;2023-09-08T03:43:52;96745.00;;;18.40
14851;BMP180;7517;48.400;11.770;2023-09-08T03:46:20;96748.00;;;18.30
14851;BMP180;7517;48.400;11.770;2023-09-08T03:48:47;96742.00;;;18.30
14851;BMP180;7517;48.400;11.770;2023-09-08T03:51:14;96744.00;;;18.30
14851;BMP180;7517;48.400;11.770;2023-09-08T03:53:42;96743.00;;;18.30
14851;BMP180;7517;48.400;11.770;2023-09-08T03:56:09;96742.00;;;18.30
14851;BMP180;7517;48.400;11.770;2023-09-08T03:58:36;96750.00;;;18.20
14851;BMP180;7517;48.400;11.770;2023-09-08T04:01:04;96740.00;;;18.20
14851;BMP180;7517;48.400;11.770;2023-09-08T04:03:31;96744.00;;;18.20
14851;BMP180;7517;48.400;11.770;2023-09-08T04:05:59;96736.00;;;18.20
14851;BMP180;7517;48.400;11.770;2023-09-08T04:08:26;96747.00;;;18.20
14851;BMP180;7517;48.400;11.770;2023-09-08T04:10:53;96734.00;;;18.10
14851;BMP180;7517;48.400;11.770;2023-09-08T04:13:20;96740.00;;;18.10
14851;BMP180;7517;48.400;11.770;2023-09-08T04:15:47;96742.00;;;18.10
14851;BMP180;7517;48.400;11.770;2023-09-08T04:18:16;96744.00;;;18.10
14851;BMP180;7517;48.400;11.770;2023-09-08T04:20:43;96742.00;;;18.00
14851;BMP180;7517;48.400;11.770;2023-09-08T04:23:10;96745.00;;;18.00
14851;BMP180;7517;48.400;11.770;2023-09-08T04:25:37;96736.00;;;18.00
14851;BMP180;7517;48.400;11.770;2023-09-08T04:28:05;96734.00;;;17.90
14851;BMP180;7517;48.400;11.770;2023-09-08T04:30:32;96733.00;;;17.90
14851;BMP180;7517;48.400;11.770;2023-09-08T04:33:00;96728.00;;;17.90
14851;BMP180;7517;48.400;11.770;2023-09-08T04:35:28;96733.00;;;17.90
14851;BMP180;7517;48.400;11.770;2023-09-08T04:37:56;96733.00;;;17.80
14851;BMP180;7517;48.400;11.770;2023-09-08T04:40:23;96739.00;;;17.80
14851;BMP180;7517;48.400;11.770;2023-09-08T04:42:50;96741.00;;;17.80
14851;BMP180;7517;48.400;11.770;2023-09-08T04:45:17;96742.00;;;17.80
14851;BMP180;7517;48.400;11.770;2023-09-08T04:47:44;96740.00;;;17.70
14851;BMP180;7517;48.400;11.770;2023-09-08T04:50:13;96749.00;;;17.70
14851;BMP180;7517;48.400;11.770;2023-09-08T04:52:42;96743.00;;;17.70
14851;BMP180;7517;48.400;11.770;2023-09-08T04:55:10;96752.00;;;17.70
14851;BMP180;7517;48.400;11.770;2023-09-08T04:57:38;96750.00;;;17.70
14851;BMP180;7517;48.400;11.770;2023-09-08T05:00:07;96758.00;;;17.70
14851;BMP180;7517;48.400;11.770;2023-09-08T05:02:34;96766.00;;;17.70
14851;BMP180;7517;48.400;11.770;2023-09-08T05:05:02;96758.00;;;17.70
14851;BMP180;7517;48.400;11.770;2023-09-08T05:07:30;96747.00;;;17.70
14851;BMP180;7517;48.400;11.770;2023-09-08T05:09:59;96750.00;;;17.70
14851;BMP180;7517;48.400;11.770;2023-09-08T05:12:26;96761.00;;;17.70
14851;BMP180;7517;48.400;11.770;2023-09-08T05:14:53;96761.00;;;17.70
14851;BMP180;7517;48.400;11.770;2023-09-08T05:17:26;96753.00;;;17.70
14851;BMP180;7517;48.400;11.770;2023-09-08T05:19:53;96755.00;;;17.70
14851;BMP180;7517;48.400;11.770;2023-09-08T05:22:21;96753.00;;;17.70
14851;BMP180;7517;48.400;11.770;2023-09-08T05:24:48;96755.00;;;17.70
14851;BMP180;7517;48.400;11.770;2023-09-08T05:27:16;96763.00;;;17.70
14851;BMP180;7517;48.400;11.770;2023-09-08T05:29:45;96767.00;;;17.70
14851;BMP180;7517;48.400;11.770;2023-09-08T05:32:12;96769.00;;;17.70
14851;BMP180;7517;48.400;11.770;2023-09-08T05:34:40;96772.00;;;17.70
14851;BMP180;7517;48.400;11.770;2023-09-08T05:37:07;96784.00;;;17.70
14851;BMP180;7517;48.400;11.770;2023-09-08T05:39:34;96781.00;;;17.70
14851;BMP180;7517;48.400;11.770;2023-09-08T05:42:02;96782.00;;;17.70
14851;BMP180;7517;48.400;11.770;2023-09-08T05:44:30;96782.00;;;17.70
14851;BMP180;7517;48.400;11.770;2023-09-08T05:46:57;96787.00;;;17.70
14851;BMP180;7517;48.400;11.770;2023-09-08T05:49:25;96781.00;;;17.80
14851;BMP180;7517;48.400;11.770;2023-09-08T05:51:52;96781.00;;;17.80
14851;BMP180;7517;48.400;11.770;2023-09-08T05:54:19;96784.00;;;17.80
14851;BMP180;7517;48.400;11.770;2023-09-08T05:56:46;96782.00;;;17.80
14851;BMP180;7517;48.400;11.770;2023-09-08T05:59:15;96782.00;;;17.80
14851;BMP180;7517;48.400;11.770;2023-09-08T06:01:43;96786.00;;;17.80
14851;BMP180;7517;48.400;11.770;2023-09-08T06:04:10;96782.00;;;17.90
14851;BMP180;7517;48.400;11.770;2023-09-08T06:06:38;96792.00;;;17.90
14851;BMP180;7517;48.400;11.770;2023-09-08T06:09:06;96794.00;;;17.90
14851;BMP180;7517;48.400;11.770;2023-09-08T06:11:34;96793.00;;;18.00
14851;BMP180;7517;48.400;11.770;2023-09-08T06:14:01;96787.00;;;18.00
14851;BMP180;7517;48.400;11.770;2023-09-08T06:16:29;96793.00;;;18.10
14851;BMP180;7517;48.400;11.770;2023-09-08T06:18:58;96799.00;;;18.10
14851;BMP180;7517;48.400;11.770;2023-09-08T06:21:25;96798.00;;;18.20
14851;BMP180;7517;48.400;11.770;2023-09-08T06:23:52;96792.00;;;18.20
14851;BMP180;7517;48.400;11.770;2023-09-08T06:26:19;96798.00;;;18.30
14851;BMP180;7517;48.400;11.770;2023-09-08T06:28:47;96794.00;;;18.30
14851;BMP180;7517;48.400;11.770;2023-09-08T06:31:14;96798.00;;;18.30
14851;BMP180;7517;48.400;11.770;2023-09-08T06:33:41;96791.00;;;18.40
14851;BMP180;7517;48.400;11.770;2023-09-08T06:36:10;96794.00;;;18.40
14851;BMP180;7517;48.400;11.770;2023-09-08T06:38:37;96799.00;;;18.50
14851;BMP180;7517;48.400;11.770;2023-09-08T06:41:09;96795.00;;;18.50
14851;BMP180;7517;48.400;11.770;2023-09-08T06:43:37;96805.00;;;18.60
14851;BMP180;7517;48.400;11.770;2023-09-08T06:46:04;96804.00;;;18.70
14851;BMP180;7517;48.400;11.770;2023-09-08T06:48:31;96800.00;;;18.70
14851;BMP180;7517;48.400;11.770;2023-09-08T06:50:59;96807.00;;;18.80
14851;BMP180;7517;48.400;11.770;2023-09-08T06:53:27;96800.00;;;18.90
14851;BMP180;7517;48.400;11.770;2023-09-08T06:55:56;96805.00;;;18.90
14851;BMP180;7517;48.400;11.770;2023-09-08T06:58:23;96806.00;;;19.00
14851;BMP180;7517;48.400;11.770;2023-09-08T07:00:50;96803.00;;;19.10
14851;BMP180;7517;48.400;11.770;2023-09-08T07:03:20;96813.00;;;19.20
14851;BMP180;7517;48.400;11.770;2023-09-08T07:05:49;96813.00;;;19.20
14851;BMP180;7517;48.400;11.770;2023-09-08T07:08:16;96813.00;;;19.30
14851;BMP180;7517;48.400;11.770;2023-09-08T07:10:51;96821.00;;;19.40
14851;BMP180;7517;48.400;11.770;2023-09-08T07:13:19;96816.00;;;19.50
14851;BMP180;7517;48.400;11.770;2023-09-08T07:15:46;96815.00;;;19.60
14851;BMP180;7517;48.400;11.770;2023-09-08T07:18:14;96820.00;;;19.70
14851;BMP180;7517;48.400;11.770;2023-09-08T07:20:41;96817.00;;;19.80
14851;BMP180;7517;48.400;11.770;2023-09-08T07:23:08;96817.00;;;19.90
14851;BMP180;7517;48.400;11.770;2023-09-08T07:25:35;96817.00;;;20.00
14851;BMP180;7517;48.400;11.770;2023-09-08T07:28:05;96817.00;;;20.10
14851;BMP180;7517;48.400;11.770;2023-09-08T07:30:32;96815.00;;;20.20
14851;BMP180;7517;48.400;11.770;2023-09-08T07:33:00;96813.00;;;20.30
14851;BMP180;7517;48.400;11.770;2023-09-08T07:35:27;96811.00;;;20.40
14851;BMP180;7517;48.400;11.770;2023-09-08T07:37:54;96807.00;;;20.60
14851;BMP180;7517;48.400;11.770;2023-09-08T07:40:21;96810.00;;;20.70
14851;BMP180;7517;48.400;11.770;2023-09-08T07:42:48;96812.00;;;20.80
14851;BMP180;7517;48.400;11.770;2023-09-08T07:45:17;96815.00;;;20.90
14851;BMP180;7517;48.400;11.770;2023-09-08T07:47:44;96810.00;;;21.00
14851;BMP180;7517;48.400;11.770;2023-09-08T07:50:21;96815.00;;;21.10
14851;BMP180;7517;48.400;11.770;2023-09-08T07:52:49;96809.00;;;21.20
14851;BMP180;7517;48.400;11.770;2023-09-08T07:55:17;96813.00;;;21.40
14851;BMP180;7517;48.400;11.770;2023-09-08T07:57:46;96811.00;;;21.50
14851;BMP180;7517;48.400;11.770;2023-09-08T08:00:14;96818.00;;;21.60
14851;BMP180;7517;48.400;11.770;2023-09-08T08:02:47;96809.00;;;21.70
14851;BMP180;7517;48.400;11.770;2023-09-08T08:05:14;96806.00;;;21.80
14851;BMP180;7517;48.400;11.770;2023-09-08T08:07:43;96816.00;;;22.00
14851;BMP180;7517;48.400;11.770;2023-09-08T08:10:12;96820.00;;;22.10
14851;BMP180;7517;48.400;11.770;2023-09-08T08:12:41;96819.00;;;22.20
14851;BMP180;7517;48.400;11.770;2023-09-08T08:15:11;96813.00;;;22.40
14851;BMP180;7517;48.400;11.770;2023-09-08T08:17:39;96814.00;;;22.50
14851;BMP180;7517;48.400;11.770;2023-09-08T08:20:11;96825.00;;;22.60
14851;BMP180;7517;48.400;11.770;2023-09-08T08:22:43;96823.00;;;22.80
14851;BMP180;7517;48.400;11.770;2023-09-08T08:25:12;96820.00;;;22.90
14851;BMP180;7517;48.400;11.770;2023-09-08T08:27:40;96825.00;;;23.00
14851;BMP180;7517;48.400;11.770;2023-09-08T08:30:08;96838.00;;;23.10
14851;BMP180;7517;48.400;11.770;2023-09-08T08:32:37;96828.00;;;23.20
14851;BMP180;7517;48.400;11.770;2023-09-08T08:35:05;96828.00;;;23.30
14851;BMP180;7517;48.400;11.770;2023-09-08T08:37:34;96825.00;;;23.40
14851;BMP180;7517;48.400;11.770;2023-09-08T08:40:02;96818.00;;;23.50
14851;BMP180;7517;48.400;11.770;2023-09-08T08:42:31;96826.00;;;23.60
14851;BMP180;7517;48.400;11.770;2023-09-08T08:45:00;96824.00;;;23.70
14851;BMP180;7517;48.400;11.770;2023-09-08T08:47:29;96826.00;;;23.80
14851;BMP180;7517;48.400;11.770;2023-09-08T08:49:57;96835.00;;;23.90
14851;BMP180;7517;48.400;11.770;2023-09-08T08:52:26;96827.00;;;24.00
14851;BMP180;7517;48.400;11.770;2023-09-08T08:54:55;96828.00;;;24.20
14851;BMP180;7517;48.400;11.770;2023-09-08T08:57:23;96824.00;;;24.30
14851;BMP180;7517;48.400;11.770;2023-09-08T08:59:53;96816.00;;;24.40
14851;BMP180;7517;48.400;11.770;2023-09-08T09:02:22;96819.00;;;24.50
14851;BMP180;7517;48.400;11.770;2023-09-08T09:04:52;96824.00;;;24.70
14851;BMP180;7517;48.400;11.770;2023-09-08T09:07:20;96827.00;;;24.80
14851;BMP180;7517;48.400;11.770;2023-09-08T09:09:48;96819.00;;;24.90
14851;BMP180;7517;48.400;11.770;2023-09-08T09:12:17;96817.00;;;25.00
14851;BMP180;7517;48.400;11.770;2023-09-08T09:14:47;96812.00;;;25.20
14851;BMP180;7517;48.400;11.770;2023-09-08T09:17:15;96822.00;;;25.30
14851;BMP180;7517;48.400;11.770;2023-09-08T09:19:42;96814.00;;;25.40
14851;BMP180;7517;48.400;11.770;2023-09-08T09:22:09;96817.00;;;25.50
14851;BMP180;7517;48.400;11.770;2023-09-08T09:24:38;96812.00;;;25.60
14851;BMP180;7517;48.400;11.770;2023-09-08T09:27:07;96812.00;;;25.70
14851;BMP180;7517;48.400;11.770;2023-09-08T09:29:44;96813.00;;;25.80
14851;BMP180;7517;48.400;11.770;2023-09-08T09:32:16;96810.00;;;26.00
14851;BMP180;7517;48.400;11.770;2023-09-08T09:34:56;96810.00;;;26.10
14851;BMP180;7517;48.400;11.770;2023-09-08T09:37:27;96805.00;;;26.20
14851;BMP180;7517;48.400;11.770;2023-09-08T09:39:55;96807.00;;;26.30
14851;BMP180;7517;48.400;11.770;2023-09-08T09:42:22;96810.00;;;26.40
14851;BMP180;7517;48.400;11.770;2023-09-08T09:44:52;96807.00;;;26.50
14851;BMP180;7517;48.400;11.770;2023-09-08T09:47:19;96815.00;;;26.70
14851;BMP180;7517;48.400;11.770;2023-09-08T09:49:48;96805.00;;;26.80
14851;BMP180;7517;48.400;11.770;2023-09-08T09:52:22;96807.00;;;26.90
14851;BMP180;7517;48.400;11.770;2023-09-08T09:54:53;96809.00;;;27.00
14851;BMP180;7517;48.400;11.770;2023-09-08T09:57:22;96806.00;;;27.10
14851;BMP180;7517;48.400;11.770;2023-09-08T09:59:53;96811.00;;;27.20
14851;BMP180;7517;48.400;11.770;2023-09-08T10:02:24;96805.00;;;27.40
14851;BMP180;7517;48.400;11.770;2023-09-08T10:04:53;96804.00;;;27.50
14851;BMP180;7517;48.400;11.770;2023-09-08T10:07:22;96804.00;;;27.60
14851;BMP180;7517;48.400;11.770;2023-09-08T10:09:50;96813.00;;;27.70
14851;BMP180;7517;48.400;11.770;2023-09-08T10:12:18;96810.00;;;27.80
14851;BMP180;7517;48.400;11.770;2023-09-08T10:14:49;96804.00;;;27.90
14851;BMP180;7517;48.400;11.770;2023-09-08T10:17:30;96805.00;;;28.00
14851;BMP180;7517;48.400;11.770;2023-09-08T10:20:00;96805.00;;;28.10
14851;BMP180;7517;48.400;11.770;2023-09-08T10:22:38;96799.00;;;28.20
14851;BMP180;7517;48.400;11.770;2023-09-08T10:25:08;96800.00;;;28.30
14851;BMP180;7517;48.400;11.770;2023-09-08T10:27:36;96798.00;;;28.40
14851;BMP180;7517;48.400;11.770;2023-09-08T10:30:06;96799.00;;;28.40
14851;BMP180;7517;48.400;11.770;2023-09-08T10:32:36;96802.00;;;28.50
14851;BMP180;7517;48.400;11.770;2023-09-08T10:35:04;96799.00;;;28.60
14851;BMP180;7517;48.400;11.770;2023-09-08T10:37:32;96805.00;;;28.70
14851;BMP180;7517;48.400;11.770;2023-09-08T10:40:24;96795.00;;;28.80
14851;BMP180;7517;48.400;11.770;2023-09-08T10:43:09;96795.00;;;28.90
14851;BMP180;7517;48.400;11.770;2023-09-08T10:45:36;96791.00;;;28.90
14851;BMP180;7517;48.400;11.770;2023-09-08T10:48:07;96799.00;;;29.00
14851;BMP180;7517;48.400;11.770;2023-09-08T10:50:39;96794.00;;;29.00
14851;BMP180;7517;48.400;11.770;2023-09-08T10:53:09;96797.00;;;29.00
14851;BMP180;7517;48.400;11.770;2023-09-08T10:55:41;96796.00;;;29.00
14851;BMP180;7517;48.400;11.770;2023-09-08T10:58:18;96791.00;;;29.00
14851;BMP180;7517;48.400;11.770;2023-09-08T11:00:51;96785.00;;;28.90
14851;BMP180;7517;48.400;11.770;2023-09-08T11:03:46;96790.00;;;28.90
14851;BMP180;7517;48.400;11.770;2023-09-08T11:06:16;96794.00;;;28.90
14851;BMP180;7517;48.400;11.770;2023-09-08T11:08:46;96793.00;;;28.90
14851;BMP180;7517;48.400;11.770;2023-09-08T11:11:16;96786.00;;;28.90
14851;BMP180;7517;48.400;11.770;2023-09-08T11:13:44;96790.00;;;28.90
14851;BMP180;7517;48.400;11.770;2023-09-08T11:16:13;96788.00;;;28.90
14851;BMP180;7517;48.400;11.770;2023-09-08T11:18:42;96791.00;;;28.80
14851;BMP180;7517;48.400;11.770;2023-09-08T11:21:10;96790.00;;;28.80
14851;BMP180;7517;48.400;11.770;2023-09-08T11:23:39;96789.00;;;28.80
14851;BMP180;7517;48.400;11.770;2023-09-08T11:26:06;96781.00;;;28.70
14851;BMP180;7517;48.400;11.770;2023-09-08T11:28:34;96781.00;;;28.70
14851;BMP180;7517;48.400;11.770;2023-09-08T11:31:02;96782.00;;;28.70
14851;BMP180;7517;48.400;11.770;2023-09-08T11:33:34;96786.00;;;28.70
14851;BMP180;7517;48.400;11.770;2023-09-08T11:36:12;96783.00;;;28.70
14851;BMP180;7517;48.400;11.770;2023-09-08T11:38:43;96784.00;;;28.70
14851;BMP180;7517;48.400;11.770;2023-09-08T11:41:11;96781.00;;;28.70
14851;BMP180;7517;48.400;11.770;2023-09-08T11:43:38;96778.00;;;28.70
14851;BMP180;7517;48.400;11.770;2023-09-08T11:46:06;96781.00;;;28.70
14851;BMP180;7517;48.400;11.770;2023-09-08T11:48:33;96783.00;;;28.70
14851;BMP180;7517;48.400;11.770;2023-09-08T11:51:01;96784.00;;;28.70
14851;BMP180;7517;48.400;11.770;2023-09-08T11:53:29;96789.00;;;28.70
14851;BMP180;7517;48.400;11.770;2023-09-08T11:55:59;96780.00;;;28.70
14851;BMP180;7517;48.400;11.770;2023-09-08T11:58:26;96784.00;;;28.70
14851;BMP180;7517;48.400;11.770;2023-09-08T12:00:54;96780.00;;;28.80
14851;BMP180;7517;48.400;11.770;2023-09-08T12:03:21;96791.00;;;28.80
14851;BMP180;7517;48.400;11.770;2023-09-08T12:05:52;96780.00;;;28.80
14851;BMP180;7517;48.400;11.770;2023-09-08T12:08:20;96783.00;;;28.80
14851;BMP180;7517;48.400;11.770;2023-09-08T12:10:54;96784.00;;;28.80
14851;BMP180;7517;48.400;11.770;2023-09-08T12:13:22;96782.00;;;28.80
14851;BMP180;7517;48.400;11.770;2023-09-08T12:15:51;96773.00;;;28.80
14851;BMP180;7517;48.400;11.770;2023-09-08T12:18:18;96778.00;;;28.80
14851;BMP180;7517;48.400;11.770;2023-09-08T12:20:45;96772.00;;;28.80
14851;BMP180;7517;48.400;11.770;2023-09-08T12:23:18;96777.00;;;28.80
14851;BMP180;7517;48.400;11.770;2023-09-08T12:25:47;96767.00;;;28.80
14851;BMP180;7517;48.400;11.770;2023-09-08T12:28:18;96772.00;;;28.80
14851;BMP180;7517;48.400;11.770;2023-09-08T12:30:46;96771.00;;;28.90
14851;BMP180;7517;48.400;11.770;2023-09-08T12:33:14;96769.00;;;28.90
14851;BMP180;7517;48.400;11.770;2023-09-08T12:35:43;96772.00;;;28.90
14851;BMP180;7517;48.400;11.770;2023-09-08T12:38:13;96765.00;;;28.90
14851;BMP180;7517;48.400;11.770;2023-09-08T12:40:40;96768.00;;;29.00
14851;BMP180;7517;48.400;11.770;2023-09-08T12:43:07;96766.00;;;29.00
14851;BMP180;7517;48.400;11.770;2023-09-08T12:45:36;96769.00;;;29.00
14851;BMP180;7517;48.400;11.770;2023-09-08T12:48:04;96759.00;;;29.00
14851;BMP180;7517;48.400;11.770;2023-09-08T12:50:32;96754.00;;;29.10
14851;BMP180;7517;48.400;11.770;2023-09-08T12:53:00;96752.00;;;29.00
14851;BMP180;7517;48.400;11.770;2023-09-08T12:55:27;96749.00;;;29.00
14851;BMP180;7517;48.400;11.770;2023-09-08T12:57:55;96756.00;;;29.10
14851;BMP180;7517;48.400;11.770;2023-09-08T13:00:23;96753.00;;;29.00
14851;BMP180;7517;48.400;11.770;2023-09-08T13:02:52;96749.00;;;29.00
14851;BMP180;7517;48.400;11.770;2023-09-08T13:05:19;96744.00;;;29.00
14851;BMP180;7517;48.400;11.770;2023-09-08T13:07:47;96753.00;;;29.10
14851;BMP180;7517;48.400;11.770;2023-09-08T13:10:14;96748.00;;;29.10
14851;BMP180;7517;48.400;11.770;2023-09-08T13:12:42;96741.00;;;29.10
14851;BMP180;7517;48.400;11.770;2023-09-08T13:15:09;96749.00;;;29.20
14851;BMP180;7517;48.400;11.770;2023-09-08T13:17:37;96746.00;;;29.20
14851;BMP180;7517;48.400;11.770;2023-09-08T13:20:08;96751.00;;;29.20
14851;BMP180;7517;48.400;11.770;2023-09-08T13:22:36;96734.00;;;29.30
14851;BMP180;7517;48.400;11.770;2023-09-08T13:25:05;96742.00;;;29.30
14851;BMP180;7517;48.400;11.770;2023-09-08T13:27:32;96739.00;;;29.40
14851;BMP180;7517;48.400;11.770;2023-09-08T13:30:09;96733.00;;;29.40
14851;BMP180;7517;48.400;11.770;2023-09-08T13:32:37;96739.00;;;29.40
14851;BMP180;7517;48.400;11.770;2023-09-08T13:35:07;96739.00;;;29.50
14851;BMP180;7517;48.400;11.770;2023-09-08T13:37:34;96736.00;;;29.50
14851;BMP180;7517;48.400;11.770;2023-09-08T13:40:05;96743.00;;;29.50
14851;BMP180;7517;48.400;11.770;2023-09-08T13:42:32;96739.00;;;29.60
14851;BMP180;7517;48.400;11.770;2023-09-08T13:45:00;96734.00;;;29.60
14851;BMP180;7517;48.400;11.770;2023-09-08T13:47:27;96735.00;;;29.60
14851;BMP180;7517;48.400;11.770;2023-09-08T13:49:54;96730.00;;;29.60
14851;BMP180;7517;48.400;11.770;2023-09-08T13:52:23;96729.00;;;29.60
14851;BMP180;7517;48.400;11.770;2023-09-08T13:54:51;96723.00;;;29.60
14851;BMP180;7517;48.400;11.770;2023-09-08T13:57:18;96726.00;;;29.60
14851;BMP180;7517;48.400;11.770;2023-09-08T13:59:48;96720.00;;;29.60
14851;BMP180;7517;48.400;11.770;2023-09-08T14:02:15;96726.00;;;29.60
14851;BMP180;7517;48.400;11.770;2023-09-08T14:04:43;96725.00;;;29.60
14851;BMP180;7517;48.400;11.770;2023-09-08T14:07:10;96716.00;;;29.70
14851;BMP180;7517;48.400;11.770;2023-09-08T14:09:39;96711.00;;;29.70
14851;BMP180;7517;48.400;11.770;2023-09-08T14:12:06;96717.00;;;29.70
14851;BMP180;7517;48.400;11.770;2023-09-08T14:14:34;96714.00;;;29.70
14851;BMP180;7517;48.400;11.770;2023-09-08T14:17:01;96704.00;;;29.70